sensor_id;sensor_type;location;lat;lon;timestamp;pressure;altitude;pressure_sealevel;temperature;humidity
47430;BME280;33181;49.246;7.372;2023-07-29T00:02:08;98248.09;;;18.89;100.00
47430;BME280;33181;49.246;7.372;2023-07-29T00:04:34;98246.88;;;18.91;100.00
47430;BME280;33181;49.246;7.372;2023-07-29T00:06:59;98242.00;;;18.95;100.00
47430;BME280;33181;49.246;7.372;2023-07-29T00:09:25;98237.94;;;18.99;100.00
47430;BME280;33181;49.246;7.372;2023-07-29T00:11:51;98241.63;;;18.98;100.00
47430;BME280;33181;49.246;7.372;2023-07-29T00:14:17;98236.94;;;19.00;100.00
47430;BME280;33181;49.246;7.372;2023-07-29T00:16:43;98236.75;;;19.02;100.00
47430;BME280;33181;49.246;7.372;2023-07-29T00:19:08;98228.94;;;19.00;100.00
47430;BME280;33181;49.246;7.372;2023-07-29T00:21:34;98229.19;;;19.05;100.00
47430;BME280;33181;49.246;7.372;2023-07-29T00:24:00;98227.56;;;19.04;100.00
47430;BME280;33181;49.246;7.372;2023-07-29T00:26:27;98224.50;;;19.07;100.00
47430;BME280;33181;49.246;7.372;2023-07-29T00:28:55;98229.44;;;19.10;100.00
47430;BME280;33181;49.246;7.372;2023-07-29T00:31:21;98226.16;;;19.08;100.00
47430;BME280;33181;49.246;7.372;2023-07-29T00:33:47;98223.28;;;19.10;100.00
47430;BME280;33181;49.246;7.372;2023-07-29T00:36:13;98226.16;;;19.08;100.00
47430;BME280;33181;49.246;7.372;2023-07-29T00:38:38;98222.28;;;19.11;100.00
47430;BME280;33181;49.246;7.372;2023-07-29T00:41:05;98226.59;;;19.12;100.00
47430;BME280;33181;49.246;7.372;2023-07-29T00:43:31;98230.53;;;19.16;100.00
47430;BME280;33181;49.246;7.372;2023-07-29T00:45:57;98221.53;;;19.17;100.00
47430;BME280;33181;49.246;7.372;2023-07-29T00:48:24;98226.00;;;19.16;100.00
47430;BME280;33181;49.246;7.372;2023-07-29T00:50:51;98226.00;;;19.16;100.00
47430;BME280;33181;49.246;7.372;2023-07-29T00:53:16;98217.41;;;19.14;100.00
47430;BME280;33181;49.246;7.372;2023-07-29T00:55:43;98219.03;;;19.15;100.00
47430;BME280;33181;49.246;7.372;2023-07-29T00:58:10;98217.41;;;19.14;100.00
47430;BME280;33181;49.246;7.372;2023-07-29T01:00:36;98213.53;;;19.17;100.00
47430;BME280;33181;49.246;7.372;2023-07-29T01:03:02;98218.66;;;19.18;100.00
47430;BME280;33181;49.246;7.372;2023-07-29T01:05:40;98213.53;;;19.17;100.00
47430;BME280;33181;49.246;7.372;2023-07-29T01:08:33;98214.38;;;19.17;100.00
47430;BME280;33181;49.246;7.372;2023-07-29T01:14:27;98207.38;;;19.16;100.00
47430;BME280;33181;49.246;7.372;2023-07-29T01:17:08;98209.84;;;19.18;100.00
47430;BME280;33181;49.246;7.372;2023-07-29T01:20:09;98206.56;;;19.16;100.00
47430;BME280;33181;49.246;7.372;2023-07-29T01:22:37;98204.31;;;19.19;100.00
47430;BME280;33181;49.246;7.372;2023-07-29T01:25:04;98212.13;;;19.21;100.00
47430;BME280;33181;49.246;7.372;2023-07-29T01:27:30;98210.88;;;19.17;100.00
47430;BME280;33181;49.246;7.372;2023-07-29T01:29:57;98212.09;;;19.14;100.00
47430;BME280;33181;49.246;7.372;2023-07-29T01:32:36;98212.47;;;19.11;100.00
47430;BME280;33181;49.246;7.372;2023-07-29T01:38:13;98206.06;;;19.06;100.00
47430;BME280;33181;49.246;7.372;2023-07-29T01:40:40;98200.53;;;19.07;100.00
47430;BME280;33181;49.246;7.372;2023-07-29T01:43:06;98193.78;;;19.05;100.00
47430;BME280;33181;49.246;7.372;2023-07-29T01:45:34;98181.28;;;19.05;100.00
47430;BME280;33181;49.246;7.372;2023-07-29T01:48:05;98185.84;;;19.11;100.00
47430;BME280;33181;49.246;7.372;2023-07-29T01:50:30;98193.06;;;19.17;100.00
47430;BME280;33181;49.246;7.372;2023-07-29T01:52:58;98184.06;;;19.18;100.00
47430;BME280;33181;49.246;7.372;2023-07-29T01:55:24;98187.53;;;19.19;100.00
47430;BME280;33181;49.246;7.372;2023-07-29T01:57:52;98185.06;;;19.17;100.00
47430;BME280;33181;49.246;7.372;2023-07-29T02:00:19;98186.31;;;19.21;100.00
47430;BME280;33181;49.246;7.372;2023-07-29T02:02:45;98193.69;;;19.19;100.00
47430;BME280;33181;49.246;7.372;2023-07-29T02:05:11;98183.22;;;19.18;100.00
47430;BME280;33181;49.246;7.372;2023-07-29T02:07:37;98182.63;;;19.22;100.00
47430;BME280;33181;49.246;7.372;2023-07-29T02:10:03;98174.09;;;19.27;100.00
47430;BME280;33181;49.246;7.372;2023-07-29T02:12:28;98163.00;;;19.24;100.00
47430;BME280;33181;49.246;7.372;2023-07-29T02:14:54;98166.91;;;19.28;100.00
47430;BME280;33181;49.246;7.372;2023-07-29T02:17:20;98169.19;;;19.31;100.00
47430;BME280;33181;49.246;7.372;2023-07-29T02:19:46;98164.69;;;19.31;100.00
47430;BME280;33181;49.246;7.372;2023-07-29T02:22:17;98159.19;;;19.33;100.00
47430;BME280;33181;49.246;7.372;2023-07-29T02:24:43;98155.91;;;19.37;100.00
47430;BME280;33181;49.246;7.372;2023-07-29T02:27:09;98159.81;;;19.41;100.00
47430;BME280;33181;49.246;7.372;2023-07-29T02:29:35;98157.81;;;19.43;100.00
47430;BME280;33181;49.246;7.372;2023-07-29T02:32:01;98167.44;;;19.44;100.00
47430;BME280;33181;49.246;7.372;2023-07-29T02:34:27;98169.66;;;19.41;100.00
47430;BME280;33181;49.246;7.372;2023-07-29T02:36:52;98167.66;;;19.43;100.00
47430;BME280;33181;49.246;7.372;2023-07-29T02:39:18;98159.81;;;19.41;100.00
47430;BME280;33181;49.246;7.372;2023-07-29T02:41:44;98162.09;;;19.44;100.00
47430;BME280;33181;49.246;7.372;2023-07-29T02:44:09;98161.94;;;19.46;100.00
47430;BME280;33181;49.246;7.372;2023-07-29T02:46:35;98168.88;;;19.47;100.00
47430;BME280;33181;49.246;7.372;2023-07-29T02:49:02;98178.09;;;19.44;100.00
47430;BME280;33181;49.246;7.372;2023-07-29T02:51:30;98173.19;;;19.48;100.00
47430;BME280;33181;49.246;7.372;2023-07-29T02:53:56;98168.66;;;19.42;100.00
47430;BME280;33181;49.246;7.372;2023-07-29T02:56:22;98166.63;;;19.44;100.00
47430;BME280;33181;49.246;7.372;2023-07-29T02:58:48;98162.09;;;19.44;100.00
47430;BME280;33181;49.246;7.372;2023-07-29T03:01:13;98163.78;;;19.45;100.00
47430;BME280;33181;49.246;7.372;2023-07-29T03:03:39;98168.06;;;19.47;100.00
47430;BME280;33181;49.246;7.372;2023-07-29T03:06:08;98163.56;;;19.47;100.00
47430;BME280;33181;49.246;7.372;2023-07-29T03:08:35;98161.94;;;19.46;100.00
47430;BME280;33181;49.246;7.372;2023-07-29T03:11:07;98162.75;;;19.47;100.00
47430;BME280;33181;49.246;7.372;2023-07-29T03:13:33;98163.38;;;19.49;100.00
47430;BME280;33181;49.246;7.372;2023-07-29T03:16:25;98164.78;;;19.44;100.00
47430;BME280;33181;49.246;7.372;2023-07-29T03:18:51;98162.75;;;19.47;100.00
47430;BME280;33181;49.246;7.372;2023-07-29T03:21:16;98156.00;;;19.51;100.00
47430;BME280;33181;49.246;7.372;2023-07-29T03:23:42;98153.97;;;19.53;100.00
47430;BME280;33181;49.246;7.372;2023-07-29T03:26:10;98147.00;;;19.52;100.00
47430;BME280;33181;49.246;7.372;2023-07-29T03:28:39;98146.16;;;19.51;100.00
47430;BME280;33181;49.246;7.372;2023-07-29T03:31:04;98144.72;;;19.49;100.00
47430;BME280;33181;49.246;7.372;2023-07-29T03:33:30;98137.56;;;19.49;100.00
47430;BME280;33181;49.246;7.372;2023-07-29T03:35:56;98138.81;;;19.53;100.00
47430;BME280;33181;49.246;7.372;2023-07-29T03:38:22;98133.88;;;19.50;100.00
47430;BME280;33181;49.246;7.372;2023-07-29T03:40:48;98131.22;;;19.50;100.00
47430;BME280;33181;49.246;7.372;2023-07-29T03:43:14;98136.97;;;19.54;100.00
47430;BME280;33181;49.246;7.372;2023-07-29T03:45:40;98127.97;;;19.55;100.00
47430;BME280;33181;49.246;7.372;2023-07-29T03:48:06;98129.97;;;19.46;100.00
47430;BME280;33181;49.246;7.372;2023-07-29T03:50:34;98135.84;;;19.41;100.00
47430;BME280;33181;49.246;7.372;2023-07-29T03:53:04;98137.53;;;19.42;100.00
47430;BME280;33181;49.246;7.372;2023-07-29T03:55:31;98146.91;;;19.38;100.00
47430;BME280;33181;49.246;7.372;2023-07-29T03:57:58;98132.97;;;19.36;100.00
47430;BME280;33181;49.246;7.372;2023-07-29T04:00:25;98123.09;;;19.30;100.00
47430;BME280;33181;49.246;7.372;2023-07-29T04:02:51;98124.50;;;19.26;100.00
47430;BME280;33181;49.246;7.372;2023-07-29T04:05:17;98128.56;;;19.22;100.00
47430;BME280;33181;49.246;7.372;2023-07-29T04:07:45;98127.31;;;19.18;100.00
47430;BME280;33181;49.246;7.372;2023-07-29T04:10:11;98133.28;;;19.20;100.00
47430;BME280;33181;49.246;7.372;2023-07-29T04:12:37;98128.38;;;19.24;100.00
47430;BME280;33181;49.246;7.372;2023-07-29T04:15:03;98128.56;;;19.22;100.00
47430;BME280;33181;49.246;7.372;2023-07-29T04:17:29;98128.81;;;19.27;100.00
47430;BME280;33181;49.246;7.372;2023-07-29T04:19:55;98136.00;;;19.27;100.00
47430;BME280;33181;49.246;7.372;2023-07-29T04:22:20;98132.28;;;19.28;100.00
47430;BME280;33181;49.246;7.372;2023-07-29T04:24:46;98149.91;;;19.29;100.00
47430;BME280;33181;49.246;7.372;2023-07-29T04:27:12;98147.06;;;19.30;100.00
47430;BME280;33181;49.246;7.372;2023-07-29T04:29:38;98135.81;;;19.35;100.00
47430;BME280;33181;49.246;7.372;2023-07-29T04:32:04;98131.94;;;19.37;100.00
47430;BME280;33181;49.246;7.372;2023-07-29T04:34:31;98128.06;;;19.40;100.00
47430;BME280;33181;49.246;7.372;2023-07-29T04:36:57;98131.69;;;19.32;100.00
47430;BME280;33181;49.246;7.372;2023-07-29T04:39:23;98134.19;;;19.34;100.00
47430;BME280;33181;49.246;7.372;2023-07-29T04:41:49;98142.19;;;19.34;100.00
47430;BME280;33181;49.246;7.372;2023-07-29T04:44:15;98134.97;;;19.28;100.00
47430;BME280;33181;49.246;7.372;2023-07-29T04:46:40;98135.00;;;19.34;100.00
47430;BME280;33181;49.246;7.372;2023-07-29T04:49:06;98143.81;;;19.35;100.00
47430;BME280;33181;49.246;7.372;2023-07-29T04:51:32;98138.69;;;19.33;100.00
47430;BME280;33181;49.246;7.372;2023-07-29T04:53:58;98137.88;;;19.33;100.00
47430;BME280;33181;49.246;7.372;2023-07-29T04:56:25;98137.25;;;19.31;100.00
47430;BME280;33181;49.246;7.372;2023-07-29T04:58:50;98139.06;;;19.30;100.00
47430;BME280;33181;49.246;7.372;2023-07-29T05:01:16;98143.59;;;19.30;100.00
47430;BME280;33181;49.246;7.372;2023-07-29T05:03:42;98146.69;;;19.33;100.00
47430;BME280;33181;49.246;7.372;2023-07-29T05:06:08;98150.59;;;19.37;100.00
47430;BME280;33181;49.246;7.372;2023-07-29T05:08:34;98153.06;;;19.39;100.00
47430;BME280;33181;49.246;7.372;2023-07-29T05:11:00;98153.06;;;19.39;100.00
47430;BME280;33181;49.246;7.372;2023-07-29T05:13:26;98156.56;;;19.39;100.00
47430;BME280;33181;49.246;7.372;2023-07-29T05:15:51;98169.06;;;19.39;100.00
47430;BME280;33181;49.246;7.372;2023-07-29T05:18:17;98164.13;;;19.36;100.00
47430;BME280;33181;49.246;7.372;2023-07-29T05:20:43;98153.66;;;19.34;100.00
47430;BME280;33181;49.246;7.372;2023-07-29T05:23:09;98160.47;;;19.43;100.00
47430;BME280;33181;49.246;7.372;2023-07-29T05:25:35;98161.00;;;19.32;100.00
47430;BME280;33181;49.246;7.372;2023-07-29T05:28:01;98150.97;;;19.34;100.00
47430;BME280;33181;49.246;7.372;2023-07-29T05:30:29;98157.56;;;19.38;100.00
47430;BME280;33181;49.246;7.372;2023-07-29T05:32:57;98153.91;;;19.39;100.00
47430;BME280;33181;49.246;7.372;2023-07-29T05:35:24;98166.56;;;19.37;100.00
47430;BME280;33181;49.246;7.372;2023-07-29T05:37:50;98153.47;;;19.36;100.00
47430;BME280;33181;49.246;7.372;2023-07-29T05:40:16;98166.19;;;19.40;100.00
47430;BME280;33181;49.246;7.372;2023-07-29T05:42:41;98167.22;;;19.39;100.00
47430;BME280;33181;49.246;7.372;2023-07-29T05:45:08;98163.53;;;19.40;100.00
47430;BME280;33181;49.246;7.372;2023-07-29T05:47:34;98171.38;;;19.49;100.00
47430;BME280;33181;49.246;7.372;2023-07-29T05:49:59;98169.31;;;19.51;100.00
47430;BME280;33181;49.246;7.372;2023-07-29T05:52:33;98170.59;;;19.55;100.00
47430;BME280;33181;49.246;7.372;2023-07-29T05:55:00;98175.53;;;19.58;100.00
47430;BME280;33181;49.246;7.372;2023-07-29T05:57:26;98186.63;;;19.61;100.00
47430;BME280;33181;49.246;7.372;2023-07-29T05:59:51;98180.75;;;19.73;100.00
47430;BME280;33181;49.246;7.372;2023-07-29T06:02:17;98183.06;;;19.82;100.00
47430;BME280;33181;49.246;7.372;2023-07-29T06:04:43;98186.38;;;19.84;100.00
47430;BME280;33181;49.246;7.372;2023-07-29T06:07:09;98189.38;;;19.75;100.00
47430;BME280;33181;49.246;7.372;2023-07-29T06:09:34;98196.78;;;19.79;100.00
47430;BME280;33181;49.246;7.372;2023-07-29T06:12:00;98191.88;;;19.83;100.00
47430;BME280;33181;49.246;7.372;2023-07-29T06:14:26;98190.22;;;19.75;100.00
47430;BME280;33181;49.246;7.372;2023-07-29T06:16:52;98183.25;;;19.74;100.00
47430;BME280;33181;49.246;7.372;2023-07-29T06:19:20;98192.47;;;19.78;100.00
47430;BME280;33181;49.246;7.372;2023-07-29T06:21:45;98187.47;;;19.97;100.00
47430;BME280;33181;49.246;7.372;2023-07-29T06:24:11;98183.34;;;19.94;100.00
47430;BME280;33181;49.246;7.372;2023-07-29T06:26:37;98189.09;;;19.98;100.00
47430;BME280;33181;49.246;7.372;2023-07-29T06:29:03;98190.13;;;19.97;100.00
47430;BME280;33181;49.246;7.372;2023-07-29T06:31:28;98185.44;;;19.99;100.00
47430;BME280;33181;49.246;7.372;2023-07-29T06:33:55;98193.25;;;20.07;100.00
47430;BME280;33181;49.246;7.372;2023-07-29T06:36:21;98198.34;;;20.02;100.00
47430;BME280;33181;49.246;7.372;2023-07-29T06:38:46;98198.97;;;20.04;100.00
47430;BME280;33181;49.246;7.372;2023-07-29T06:41:12;98201.66;;;20.10;100.00
47430;BME280;33181;49.246;7.372;2023-07-29T06:43:38;98207.03;;;20.17;100.00
47430;BME280;33181;49.246;7.372;2023-07-29T06:46:04;98196.34;;;20.17;100.00
47430;BME280;33181;49.246;7.372;2023-07-29T06:48:29;98203.97;;;20.20;100.00
47430;BME280;33181;49.246;7.372;2023-07-29T06:50:55;98208.28;;;20.21;100.00
47430;BME280;33181;49.246;7.372;2023-07-29T06:53:26;98205.25;;;20.31;100.00
47430;BME280;33181;49.246;7.372;2023-07-29T06:55:52;98192.72;;;20.25;100.00
47430;BME280;33181;49.246;7.372;2023-07-29T06:58:18;98197.81;;;20.20;100.00
47430;BME280;33181;49.246;7.372;2023-07-29T07:00:44;98194.16;;;20.27;100.00
47430;BME280;33181;49.246;7.372;2023-07-29T07:03:10;98201.56;;;20.32;100.00
47430;BME280;33181;49.246;7.372;2023-07-29T07:05:36;98203.63;;;20.36;100.00
47430;BME280;33181;49.246;7.372;2023-07-29T07:08:01;98209.19;;;20.42;100.00
47430;BME280;33181;49.246;7.372;2023-07-29T07:10:27;98208.81;;;20.51;100.00
47430;BME280;33181;49.246;7.372;2023-07-29T07:12:53;98209.25;;;20.55;100.00
47430;BME280;33181;49.246;7.372;2023-07-29T07:15:18;98214.34;;;20.50;100.00
47430;BME280;33181;49.246;7.372;2023-07-29T07:17:44;98218.13;;;20.62;100.00
47430;BME280;33181;49.246;7.372;2023-07-29T07:20:11;98217.72;;;20.65;100.00
47430;BME280;33181;49.246;7.372;2023-07-29T07:22:37;98218.09;;;20.55;100.00
47430;BME280;33181;49.246;7.372;2023-07-29T07:25:03;98224.84;;;20.58;100.00
47430;BME280;33181;49.246;7.372;2023-07-29T07:27:29;98217.66;;;20.58;100.00
47430;BME280;33181;49.246;7.372;2023-07-29T07:29:55;98217.50;;;20.67;100.00
47430;BME280;33181;49.246;7.372;2023-07-29T07:32:20;98208.44;;;20.61;100.00
47430;BME280;33181;49.246;7.372;2023-07-29T07:34:46;98208.50;;;20.74;100.00
47430;BME280;33181;49.246;7.372;2023-07-29T07:37:12;98205.03;;;20.94;100.00
47430;BME280;33181;49.246;7.372;2023-07-29T07:39:37;98208.31;;;21.29;100.00
47430;BME280;33181;49.246;7.372;2023-07-29T07:42:04;98218.00;;;21.50;98.47
47430;BME280;33181;49.246;7.372;2023-07-29T07:44:29;98211.56;;;21.97;96.62
47430;BME280;33181;49.246;7.372;2023-07-29T07:46:55;98207.19;;;22.61;92.44
47430;BME280;33181;49.246;7.372;2023-07-29T07:49:22;98221.22;;;23.27;90.17
47430;BME280;33181;49.246;7.372;2023-07-29T07:51:50;98211.69;;;23.31;85.73
47430;BME280;33181;49.246;7.372;2023-07-29T07:54:18;98220.78;;;23.30;84.45
47430;BME280;33181;49.246;7.372;2023-07-29T07:56:44;98219.91;;;23.11;85.10
47430;BME280;33181;49.246;7.372;2023-07-29T07:59:10;98234.19;;;22.91;85.93
47430;BME280;33181;49.246;7.372;2023-07-29T08:01:39;98237.06;;;22.58;86.67
47430;BME280;33181;49.246;7.372;2023-07-29T08:04:05;98228.84;;;22.53;86.12
47430;BME280;33181;49.246;7.372;2023-07-29T08:06:32;98235.63;;;22.56;88.34
47430;BME280;33181;49.246;7.372;2023-07-29T08:08:58;98226.81;;;22.49;89.35
47430;BME280;33181;49.246;7.372;2023-07-29T08:11:24;98237.63;;;22.22;90.14
47430;BME280;33181;49.246;7.372;2023-07-29T08:13:50;98223.59;;;22.33;91.14
47430;BME280;33181;49.246;7.372;2023-07-29T08:16:16;98226.72;;;22.68;88.86
47430;BME280;33181;49.246;7.372;2023-07-29T08:18:42;98225.25;;;22.73;87.17
47430;BME280;33181;49.246;7.372;2023-07-29T08:21:07;98221.28;;;22.82;88.96
47430;BME280;33181;49.246;7.372;2023-07-29T08:23:35;98222.88;;;22.89;88.27
47430;BME280;33181;49.246;7.372;2023-07-29T08:26:04;98224.53;;;23.22;86.76
47430;BME280;33181;49.246;7.372;2023-07-29T08:28:33;98237.59;;;23.69;84.16
47430;BME280;33181;49.246;7.372;2023-07-29T08:30:59;98236.69;;;23.75;81.89
47430;BME280;33181;49.246;7.372;2023-07-29T08:33:25;98228.34;;;23.83;79.63
47430;BME280;33181;49.246;7.372;2023-07-29T08:35:51;98226.72;;;24.00;79.33
47430;BME280;33181;49.246;7.372;2023-07-29T08:38:17;98230.31;;;23.94;78.21
47430;BME280;33181;49.246;7.372;2023-07-29T08:41:24;98220.84;;;23.67;75.96
47430;BME280;33181;49.246;7.372;2023-07-29T08:44:21;98217.88;;;24.18;77.33
47430;BME280;33181;49.246;7.372;2023-07-29T08:46:50;98219.56;;;24.49;72.20
47430;BME280;33181;49.246;7.372;2023-07-29T08:49:18;98219.31;;;24.69;71.29
47430;BME280;33181;49.246;7.372;2023-07-29T08:51:49;98225.38;;;25.07;70.47
47430;BME280;33181;49.246;7.372;2023-07-29T08:54:15;98225.22;;;25.43;67.43
47430;BME280;33181;49.246;7.372;2023-07-29T08:56:42;98228.50;;;25.22;67.92
47430;BME280;33181;49.246;7.372;2023-07-29T08:59:09;98216.31;;;25.31;69.26
47430;BME280;33181;49.246;7.372;2023-07-29T09:01:39;98216.88;;;25.10;67.74
47430;BME280;33181;49.246;7.372;2023-07-29T09:04:05;98218.94;;;25.08;67.74
47430;BME280;33181;49.246;7.372;2023-07-29T09:06:32;98204.16;;;24.75;68.45
47430;BME280;33181;49.246;7.372;2023-07-29T09:08:59;98217.03;;;24.96;68.50
47430;BME280;33181;49.246;7.372;2023-07-29T09:11:25;98227.84;;;24.48;67.60
47430;BME280;33181;49.246;7.372;2023-07-29T09:13:51;98228.66;;;24.48;70.03
47430;BME280;33181;49.246;7.372;2023-07-29T09:16:20;98227.47;;;24.26;70.82
47430;BME280;33181;49.246;7.372;2023-07-29T09:18:51;98231.13;;;24.32;70.01
47430;BME280;33181;49.246;7.372;2023-07-29T09:21:24;98239.66;;;24.47;69.00
47430;BME280;33181;49.246;7.372;2023-07-29T09:23:54;98237.31;;;24.32;70.42
47430;BME280;33181;49.246;7.372;2023-07-29T09:26:28;98246.72;;;24.60;64.42
47430;BME280;33181;49.246;7.372;2023-07-29T09:28:58;98234.88;;;24.79;64.77
47430;BME280;33181;49.246;7.372;2023-07-29T09:31:28;98233.78;;;24.98;62.68
47430;BME280;33181;49.246;7.372;2023-07-29T09:33:58;98221.38;;;25.39;62.23
47430;BME280;33181;49.246;7.372;2023-07-29T09:36:25;98218.13;;;25.61;60.67
47430;BME280;33181;49.246;7.372;2023-07-29T09:38:55;98227.25;;;25.83;61.44
47430;BME280;33181;49.246;7.372;2023-07-29T09:41:27;98221.88;;;25.83;59.60
47430;BME280;33181;49.246;7.372;2023-07-29T09:43:58;98234.00;;;26.09;58.36
47430;BME280;33181;49.246;7.372;2023-07-29T09:46:27;98241.28;;;26.09;57.59
47430;BME280;33181;49.246;7.372;2023-07-29T09:48:57;98242.19;;;26.15;55.60
47430;BME280;33181;49.246;7.372;2023-07-29T09:51:23;98241.38;;;26.14;56.25
47430;BME280;33181;49.246;7.372;2023-07-29T09:53:50;98244.50;;;26.34;56.76
47430;BME280;33181;49.246;7.372;2023-07-29T09:56:18;98250.53;;;26.65;55.68
47430;BME280;33181;49.246;7.372;2023-07-29T09:58:49;98234.44;;;26.99;57.15
47430;BME280;33181;49.246;7.372;2023-07-29T10:01:15;98239.88;;;26.87;53.59
47430;BME280;33181;49.246;7.372;2023-07-29T10:03:41;98244.38;;;26.81;54.25
47430;BME280;33181;49.246;7.372;2023-07-29T10:06:08;98242.16;;;26.95;53.40
47430;BME280;33181;49.246;7.372;2023-07-29T10:08:34;98244.31;;;26.93;52.10
47430;BME280;33181;49.246;7.372;2023-07-29T10:11:07;98249.19;;;26.27;51.75
47430;BME280;33181;49.246;7.372;2023-07-29T10:13:34;98263.75;;;25.79;55.45
47430;BME280;33181;49.246;7.372;2023-07-29T10:16:00;98271.78;;;25.56;56.25
47430;BME280;33181;49.246;7.372;2023-07-29T10:18:30;98281.25;;;25.35;57.15
47430;BME280;33181;49.246;7.372;2023-07-29T10:20:58;98273.53;;;25.08;57.45
47430;BME280;33181;49.246;7.372;2023-07-29T10:23:26;98281.75;;;24.65;56.11
47430;BME280;33181;49.246;7.372;2023-07-29T10:26:11;98279.97;;;24.40;57.30
47430;BME280;33181;49.246;7.372;2023-07-29T10:28:41;98272.66;;;24.29;57.69
47430;BME280;33181;49.246;7.372;2023-07-29T10:31:12;98281.75;;;24.28;58.51
47430;BME280;33181;49.246;7.372;2023-07-29T10:33:38;98281.25;;;24.38;58.33
47430;BME280;33181;49.246;7.372;2023-07-29T10:36:05;98275.38;;;24.47;58.86
47430;BME280;33181;49.246;7.372;2023-07-29T10:38:31;98269.81;;;24.79;56.87
47430;BME280;33181;49.246;7.372;2023-07-29T10:40:57;98271.41;;;25.29;57.49
47430;BME280;33181;49.246;7.372;2023-07-29T10:43:32;98258.13;;;25.81;55.59
47430;BME280;33181;49.246;7.372;2023-07-29T10:46:19;98258.75;;;26.47;54.00
47430;BME280;33181;49.246;7.372;2023-07-29T10:48:54;98255.38;;;26.40;52.81
47430;BME280;33181;49.246;7.372;2023-07-29T10:51:30;98267.53;;;26.54;52.70
47430;BME280;33181;49.246;7.372;2023-07-29T10:54:13;98256.13;;;26.64;53.31
47430;BME280;33181;49.246;7.372;2023-07-29T10:56:48;98252.78;;;26.56;52.77
47430;BME280;33181;49.246;7.372;2023-07-29T11:01:59;98256.25;;;25.58;54.14
47430;BME280;33181;49.246;7.372;2023-07-29T11:04:29;98265.69;;;25.49;55.74
47430;BME280;33181;49.246;7.372;2023-07-29T11:12:46;98259.75;;;25.58;54.83
47430;BME280;33181;49.246;7.372;2023-07-29T11:20:09;98245.38;;;26.00;54.24
47430;BME280;33181;49.246;7.372;2023-07-29T11:22:35;98247.34;;;26.16;53.75
47430;BME280;33181;49.246;7.372;2023-07-29T11:25:01;98254.72;;;26.09;53.65
47430;BME280;33181;49.246;7.372;2023-07-29T11:27:27;98263.06;;;26.07;54.05
47430;BME280;33181;49.246;7.372;2023-07-29T11:30:03;98266.00;;;25.82;54.08
47430;BME280;33181;49.246;7.372;2023-07-29T11:32:31;98259.84;;;25.75;55.96
47430;BME280;33181;49.246;7.372;2023-07-29T11:35:03;98256.47;;;25.68;56.77
47430;BME280;33181;49.246;7.372;2023-07-29T11:37:29;98262.09;;;25.55;57.08
47430;BME280;33181;49.246;7.372;2023-07-29T11:39:55;98271.72;;;25.20;56.53
47430;BME280;33181;49.246;7.372;2023-07-29T11:42:21;98265.19;;;24.98;57.42
47430;BME280;33181;49.246;7.372;2023-07-29T11:44:46;98265.84;;;24.82;57.85
47430;BME280;33181;49.246;7.372;2023-07-29T11:47:13;98263.25;;;24.75;58.40
47430;BME280;33181;49.246;7.372;2023-07-29T11:49:40;98262.06;;;24.71;58.46
47430;BME280;33181;49.246;7.372;2023-07-29T11:52:10;98252.44;;;24.63;58.96
47430;BME280;33181;49.246;7.372;2023-07-29T11:54:38;98245.94;;;24.71;58.64
47430;BME280;33181;49.246;7.372;2023-07-29T11:57:07;98257.09;;;24.86;60.33
47430;BME280;33181;49.246;7.372;2023-07-29T11:59:35;98256.38;;;24.79;59.14
47430;BME280;33181;49.246;7.372;2023-07-29T12:02:06;98252.56;;;24.68;58.54
47430;BME280;33181;49.246;7.372;2023-07-29T12:04:33;98250.88;;;24.56;59.55
47430;BME280;33181;49.246;7.372;2023-07-29T12:07:00;98252.47;;;24.45;59.72
47430;BME280;33181;49.246;7.372;2023-07-29T12:09:27;98248.16;;;24.44;61.04
47430;BME280;33181;49.246;7.372;2023-07-29T12:11:54;98242.25;;;24.54;60.78
47430;BME280;33181;49.246;7.372;2023-07-29T12:14:20;98246.25;;;24.63;60.71
47430;BME280;33181;49.246;7.372;2023-07-29T12:16:48;98240.13;;;24.56;59.39
47430;BME280;33181;49.246;7.372;2023-07-29T12:19:15;98234.84;;;24.49;59.43
47430;BME280;33181;49.246;7.372;2023-07-29T12:21:42;98245.59;;;24.49;60.10
47430;BME280;33181;49.246;7.372;2023-07-29T12:24:09;98241.56;;;24.58;59.40
47430;BME280;33181;49.246;7.372;2023-07-29T12:26:37;98245.22;;;24.64;59.95
47430;BME280;33181;49.246;7.372;2023-07-29T12:29:16;98244.94;;;24.54;59.52
47430;BME280;33181;49.246;7.372;2023-07-29T12:31:42;98245.50;;;24.56;59.35
47430;BME280;33181;49.246;7.372;2023-07-29T12:34:09;98244.59;;;24.62;59.53
47430;BME280;33181;49.246;7.372;2023-07-29T12:36:46;98251.94;;;24.55;60.11
47430;BME280;33181;49.246;7.372;2023-07-29T12:39:22;98252.88;;;24.79;58.92
47430;BME280;33181;49.246;7.372;2023-07-29T12:41:51;98253.63;;;24.97;58.99
47430;BME280;33181;49.246;7.372;2023-07-29T12:44:17;98244.88;;;25.44;58.72
47430;BME280;33181;49.246;7.372;2023-07-29T12:46:43;98242.13;;;25.86;57.59
47430;BME280;33181;49.246;7.372;2023-07-29T12:49:10;98233.66;;;26.06;57.05
47430;BME280;33181;49.246;7.372;2023-07-29T12:51:36;98238.63;;;25.85;58.01
47430;BME280;33181;49.246;7.372;2023-07-29T12:54:03;98240.44;;;25.61;57.24
47430;BME280;33181;49.246;7.372;2023-07-29T12:56:30;98242.19;;;25.56;57.55
47430;BME280;33181;49.246;7.372;2023-07-29T12:58:57;98236.69;;;25.62;58.07
47430;BME280;33181;49.246;7.372;2023-07-29T13:01:24;98231.22;;;25.81;57.70
47430;BME280;33181;49.246;7.372;2023-07-29T13:03:50;98219.06;;;25.90;57.18
47430;BME280;33181;49.246;7.372;2023-07-29T13:06:16;98217.31;;;25.96;56.53
47430;BME280;33181;49.246;7.372;2023-07-29T13:08:43;98206.28;;;26.09;56.64
47430;BME280;33181;49.246;7.372;2023-07-29T13:11:09;98206.09;;;26.39;56.36
47430;BME280;33181;49.246;7.372;2023-07-29T13:13:35;98204.81;;;26.70;53.82
47430;BME280;33181;49.246;7.372;2023-07-29T13:16:01;98202.63;;;26.84;54.28
47430;BME280;33181;49.246;7.372;2023-07-29T13:18:27;98190.97;;;27.12;53.58